Lily, Wisconsin
Current Conditions -  °F | °C
As of 6:15 AM on Thursday 29 Jan 2015 (Local Time) from KAIG Reporting Station
Haze Haze  
Wind Chill: 14°   Ceiling: 600
Heat Index: 25°   Visibility: 4mi
Dew Point: 25°   Wind: 12mph
Humidity: 98%   Direction: 320°NW
Pressure: 29.8"   Gusts: 16mph
Location:  45.261°N, 88.731°W
Report Text: KAIG 291215Z AUTO 32010G14KT 4SM BR OVC006 M04/M04 A2980 RMK AO2 T10381041
Loading
Personal Weather Stations






























Interactive Weather Map New forecast layout! Learn more

10-Day Weather Forecast

Advertisements
Track Severe Weather on mobile